This is the latest recevied weather packets stored in our database for station/object KF7SOJ. If no packets are shown the sender has not sent any weather packets the latest 10 day(s).
| Time | Temp. | Humidity | Pressure | Rain* | Wind** | Luminosity | Snow |
|---|---|---|---|---|---|---|---|
| 1777398612 | 8.33° C | 55% | 932.8 hPa | 0 mm | - | 169 W/m² | - |
| 1777397702 | 8.33° C | 58% | 933 hPa | 0 mm | - | 286 W/m² | - |
| 1777395272 | 7.22° C | 64% | 933 hPa | 0 mm | - | 385 W/m² | - |
| 1777394667 | 7.22° C | 63% | 933.2 hPa | 0 mm | - | 298 W/m² | - |
| 1777394060 | 6.11° C | 67% | 933.1 hPa | 0 mm | - | 288 W/m² | - |
| 1777393755 | 6.11° C | 68% | 933.3 hPa | 0 mm | - | 238 W/m² | - |
| 1777393455 | 6.11° C | 67% | 933.3 hPa | 0 mm | - | 260 W/m² | - |
| 1777392239 | 3.89° C | 81% | 933.2 hPa | 0 mm | - | 371 W/m² | - |
| 1777391934 | 3.89° C | 83% | 933.1 hPa | 0 mm | - | 217 W/m² | - |
| 1777389506 | 1.67° C | 87% | 933 hPa | 0 mm | - | 214 W/m² | - |
| 1777388900 | 1.11° C | 88% | 933.2 hPa | 0 mm | - | 263 W/m² | - |
| 1777386777 | 0.56° C | 89% | 933.2 hPa | 0 mm | - | 137 W/m² | - |
| 1777385868 | 0° C | 90% | 932.9 hPa | 0 mm | - | 114 W/m² | - |
| 1777385262 | -0.56° C | 90% | 932.9 hPa | 0 mm | - | 87 W/m² | - |
| 1777384655 | -0.56° C | 90% | 932.9 hPa | 0 mm | - | 72 W/m² | - |
| 1777384051 | -1.11° C | 89% | 932.9 hPa | 0 mm | - | 65 W/m² | - |
| 1777383444 | -0.56° C | 88% | 932.7 hPa | 0 mm | - | 76 W/m² | - |
| 1777383139 | -1.11° C | 88% | 932.5 hPa | 0 mm | - | 81 W/m² | - |
| 1777382837 | -1.11° C | 89% | 932.7 hPa | 0 mm | - | 79 W/m² | - |
| 1777382228 | -1.11° C | 90% | 932.4 hPa | 0 mm | - | 53 W/m² | - |
| 1777381925 | -1.67° C | 91% | 932.4 hPa | 0 mm | - | 41 W/m² | - |
| 1777380410 | -2.22° C | 90% | 932.1 hPa | 0 mm | - | 16 W/m² | - |
| 1777378889 | -2.22° C | 89% | 931.7 hPa | 0 mm | - | 5 W/m² | - |
| 1777378585 | -2.22° C | 90% | 931.7 hPa | 0 mm | - | 4 W/m² | - |
| 1777378281 | -2.22° C | 90% | 931.7 hPa | 0 mm | - | 3 W/m² | - |
* Rain latest hour (hover to see other rain measurements)
** Current wind speed in m/s (hover to see current wind gust speed)